sensor_id;sensor_type;location;lat;lon;timestamp;P1;durP1;ratioP1;P2;durP2;ratioP2
73599;SDS011;61877;48.246;9.220;2023-04-15T08:55:41;7.95;;;2.83;;
73599;SDS011;61877;48.246;9.220;2023-04-15T08:58:07;6.88;;;2.65;;
73599;SDS011;61877;48.246;9.220;2023-04-15T09:00:34;7.75;;;2.58;;
73599;SDS011;61877;48.246;9.220;2023-04-15T09:03:00;7.20;;;2.40;;
73599;SDS011;61877;48.246;9.220;2023-04-15T09:05:26;7.53;;;2.65;;
73599;SDS011;61877;48.246;9.220;2023-04-15T09:07:51;8.20;;;2.37;;
73599;SDS011;61877;48.246;9.220;2023-04-15T09:10:19;9.00;;;2.50;;
73599;SDS011;61877;48.246;9.220;2023-04-15T09:12:47;7.70;;;2.47;;
73599;SDS011;61877;48.246;9.220;2023-04-15T09:15:13;6.82;;;2.30;;
73599;SDS011;61877;48.246;9.220;2023-04-15T09:17:41;8.02;;;2.53;;
73599;SDS011;61877;48.246;9.220;2023-04-15T09:20:08;7.88;;;2.22;;
73599;SDS011;61877;48.246;9.220;2023-04-15T09:22:35;6.50;;;2.03;;
73599;SDS011;61877;48.246;9.220;2023-04-15T09:25:01;8.00;;;2.20;;
73599;SDS011;61877;48.246;9.220;2023-04-15T09:27:27;6.35;;;2.40;;
73599;SDS011;61877;48.246;9.220;2023-04-15T09:29:53;9.43;;;3.20;;
73599;SDS011;61877;48.246;9.220;2023-04-15T09:32:19;6.32;;;2.22;;
73599;SDS011;61877;48.246;9.220;2023-04-15T09:34:49;7.53;;;2.10;;
73599;SDS011;61877;48.246;9.220;2023-04-15T09:37:18;7.97;;;2.28;;
73599;SDS011;61877;48.246;9.220;2023-04-15T09:39:59;8.03;;;2.70;;
73599;SDS011;61877;48.246;9.220;2023-04-15T09:42:26;7.75;;;2.50;;
73599;SDS011;61877;48.246;9.220;2023-04-15T09:44:51;6.93;;;2.10;;
73599;SDS011;61877;48.246;9.220;2023-04-15T09:47:28;7.18;;;2.00;;
73599;SDS011;61877;48.246;9.220;2023-04-15T09:49:58;6.32;;;2.10;;
73599;SDS011;61877;48.246;9.220;2023-04-15T09:52:26;6.07;;;2.07;;
73599;SDS011;61877;48.246;9.220;2023-04-15T09:54:52;6.60;;;2.25;;
73599;SDS011;61877;48.246;9.220;2023-04-15T09:57:19;6.20;;;2.05;;
73599;SDS011;61877;48.246;9.220;2023-04-15T09:59:45;8.63;;;2.10;;
73599;SDS011;61877;48.246;9.220;2023-04-15T10:02:16;6.70;;;2.30;;
73599;SDS011;61877;48.246;9.220;2023-04-15T10:04:44;7.83;;;2.40;;
73599;SDS011;61877;48.246;9.220;2023-04-15T10:07:09;6.78;;;2.38;;
73599;SDS011;61877;48.246;9.220;2023-04-15T10:09:36;6.75;;;2.35;;
73599;SDS011;61877;48.246;9.220;2023-04-15T10:12:07;6.70;;;2.07;;
73599;SDS011;61877;48.246;9.220;2023-04-15T10:14:34;7.32;;;2.05;;
73599;SDS011;61877;48.246;9.220;2023-04-15T10:17:04;8.38;;;2.17;;
73599;SDS011;61877;48.246;9.220;2023-04-15T10:19:36;5.95;;;1.83;;
73599;SDS011;61877;48.246;9.220;2023-04-15T10:22:02;5.85;;;2.00;;
73599;SDS011;61877;48.246;9.220;2023-04-15T10:24:34;7.97;;;1.90;;
73599;SDS011;61877;48.246;9.220;2023-04-15T10:27:01;6.88;;;1.85;;
73599;SDS011;61877;48.246;9.220;2023-04-15T10:29:33;6.03;;;1.70;;
73599;SDS011;61877;48.246;9.220;2023-04-15T10:32:00;7.55;;;2.10;;
73599;SDS011;61877;48.246;9.220;2023-04-15T10:34:30;7.30;;;1.80;;
73599;SDS011;61877;48.246;9.220;2023-04-15T10:37:07;8.13;;;2.10;;
73599;SDS011;61877;48.246;9.220;2023-04-15T10:39:44;6.93;;;1.85;;
73599;SDS011;61877;48.246;9.220;2023-04-15T10:42:16;6.50;;;1.60;;
73599;SDS011;61877;48.246;9.220;2023-04-15T10:44:42;8.00;;;2.30;;
73599;SDS011;61877;48.246;9.220;2023-04-15T10:47:12;7.78;;;1.98;;
73599;SDS011;61877;48.246;9.220;2023-04-15T10:49:43;6.80;;;1.85;;
73599;SDS011;61877;48.246;9.220;2023-04-15T10:52:13;5.80;;;1.67;;
73599;SDS011;61877;48.246;9.220;2023-04-15T10:54:50;6.20;;;1.73;;
73599;SDS011;61877;48.246;9.220;2023-04-15T10:57:27;6.00;;;1.70;;
73599;SDS011;61877;48.246;9.220;2023-04-15T11:00:01;6.47;;;1.67;;
73599;SDS011;61877;48.246;9.220;2023-04-15T11:02:37;5.60;;;1.63;;
73599;SDS011;61877;48.246;9.220;2023-04-15T11:05:11;5.90;;;1.50;;
73599;SDS011;61877;48.246;9.220;2023-04-15T11:07:41;5.32;;;1.42;;
73599;SDS011;61877;48.246;9.220;2023-04-15T11:13:19;6.90;;;2.00;;
73599;SDS011;61877;48.246;9.220;2023-04-15T11:15:46;5.28;;;1.42;;
73599;SDS011;61877;48.246;9.220;2023-04-15T11:18:13;6.27;;;1.60;;
73599;SDS011;61877;48.246;9.220;2023-04-15T11:20:41;5.55;;;1.52;;
73599;SDS011;61877;48.246;9.220;2023-04-15T11:23:08;6.50;;;2.00;;
73599;SDS011;61877;48.246;9.220;2023-04-15T11:25:34;6.65;;;1.90;;
73599;SDS011;61877;48.246;9.220;2023-04-15T11:28:04;6.95;;;1.90;;
73599;SDS011;61877;48.246;9.220;2023-04-15T11:30:30;6.50;;;2.00;;
73599;SDS011;61877;48.246;9.220;2023-04-15T11:33:01;6.38;;;2.05;;
73599;SDS011;61877;48.246;9.220;2023-04-15T11:35:30;6.65;;;1.88;;
73599;SDS011;61877;48.246;9.220;2023-04-15T11:37:57;6.18;;;1.60;;
73599;SDS011;61877;48.246;9.220;2023-04-15T11:40:28;8.00;;;2.17;;
73599;SDS011;61877;48.246;9.220;2023-04-15T11:43:04;7.10;;;2.20;;
73599;SDS011;61877;48.246;9.220;2023-04-15T11:45:32;6.03;;;2.10;;
73599;SDS011;61877;48.246;9.220;2023-04-15T11:48:03;6.38;;;1.90;;
73599;SDS011;61877;48.246;9.220;2023-04-15T11:50:30;7.18;;;2.00;;
73599;SDS011;61877;48.246;9.220;2023-04-15T11:52:58;5.97;;;1.97;;
73599;SDS011;61877;48.246;9.220;2023-04-15T11:55:25;7.72;;;2.30;;
73599;SDS011;61877;48.246;9.220;2023-04-15T11:58:04;7.30;;;2.40;;
73599;SDS011;61877;48.246;9.220;2023-04-15T12:00:31;6.65;;;2.38;;
73599;SDS011;61877;48.246;9.220;2023-04-15T12:03:10;7.55;;;2.65;;
73599;SDS011;61877;48.246;9.220;2023-04-15T12:11:27;6.63;;;3.00;;
73599;SDS011;61877;48.246;9.220;2023-04-15T12:14:10;8.98;;;2.90;;
73599;SDS011;61877;48.246;9.220;2023-04-15T12:16:46;7.22;;;2.70;;
73599;SDS011;61877;48.246;9.220;2023-04-15T12:19:13;8.05;;;2.40;;
73599;SDS011;61877;48.246;9.220;2023-04-15T12:21:43;7.90;;;2.70;;
73599;SDS011;61877;48.246;9.220;2023-04-15T12:24:12;6.40;;;2.67;;
73599;SDS011;61877;48.246;9.220;2023-04-15T12:26:47;7.65;;;2.22;;
73599;SDS011;61877;48.246;9.220;2023-04-15T12:29:15;7.35;;;2.42;;
73599;SDS011;61877;48.246;9.220;2023-04-15T12:31:48;6.55;;;2.38;;
73599;SDS011;61877;48.246;9.220;2023-04-15T12:34:17;7.50;;;2.70;;
73599;SDS011;61877;48.246;9.220;2023-04-15T12:36:49;7.17;;;2.30;;
73599;SDS011;61877;48.246;9.220;2023-04-15T12:39:17;7.75;;;2.10;;
73599;SDS011;61877;48.246;9.220;2023-04-15T12:41:49;7.03;;;2.33;;
73599;SDS011;61877;48.246;9.220;2023-04-15T12:44:15;6.65;;;2.80;;
73599;SDS011;61877;48.246;9.220;2023-04-15T12:46:40;7.77;;;2.50;;
73599;SDS011;61877;48.246;9.220;2023-04-15T12:49:06;7.80;;;2.57;;
73599;SDS011;61877;48.246;9.220;2023-04-15T12:51:36;6.60;;;2.55;;
73599;SDS011;61877;48.246;9.220;2023-04-15T12:54:05;7.43;;;2.60;;
73599;SDS011;61877;48.246;9.220;2023-04-15T12:56:32;6.97;;;2.60;;
73599;SDS011;61877;48.246;9.220;2023-04-15T12:58:57;7.28;;;2.63;;
73599;SDS011;61877;48.246;9.220;2023-04-15T13:01:23;6.87;;;2.60;;
73599;SDS011;61877;48.246;9.220;2023-04-15T13:03:48;7.60;;;2.70;;
73599;SDS011;61877;48.246;9.220;2023-04-15T13:06:15;8.60;;;3.58;;
73599;SDS011;61877;48.246;9.220;2023-04-15T13:08:40;7.67;;;2.80;;
73599;SDS011;61877;48.246;9.220;2023-04-15T13:11:16;7.47;;;2.60;;
73599;SDS011;61877;48.246;9.220;2023-04-15T13:13:46;7.63;;;2.85;;
73599;SDS011;61877;48.246;9.220;2023-04-15T13:16:18;6.75;;;2.30;;
73599;SDS011;61877;48.246;9.220;2023-04-15T13:18:43;7.35;;;3.10;;
73599;SDS011;61877;48.246;9.220;2023-04-15T13:21:10;7.60;;;2.60;;
73599;SDS011;61877;48.246;9.220;2023-04-15T13:23:36;7.72;;;2.80;;
73599;SDS011;61877;48.246;9.220;2023-04-15T13:26:02;8.10;;;2.90;;
73599;SDS011;61877;48.246;9.220;2023-04-15T13:28:27;7.53;;;2.90;;
73599;SDS011;61877;48.246;9.220;2023-04-15T13:30:54;8.30;;;2.87;;
73599;SDS011;61877;48.246;9.220;2023-04-15T13:33:20;8.40;;;2.75;;
73599;SDS011;61877;48.246;9.220;2023-04-15T13:35:45;7.80;;;3.10;;
73599;SDS011;61877;48.246;9.220;2023-04-15T13:38:11;6.70;;;2.90;;
73599;SDS011;61877;48.246;9.220;2023-04-15T13:40:37;8.03;;;3.20;;
73599;SDS011;61877;48.246;9.220;2023-04-15T13:43:02;7.05;;;3.33;;
73599;SDS011;61877;48.246;9.220;2023-04-15T13:45:28;7.87;;;2.93;;
73599;SDS011;61877;48.246;9.220;2023-04-15T13:47:55;7.10;;;3.00;;
73599;SDS011;61877;48.246;9.220;2023-04-15T13:50:21;7.25;;;3.15;;
73599;SDS011;61877;48.246;9.220;2023-04-15T13:52:50;8.45;;;3.20;;
73599;SDS011;61877;48.246;9.220;2023-04-15T13:55:19;7.93;;;3.30;;
73599;SDS011;61877;48.246;9.220;2023-04-15T13:57:44;9.30;;;2.90;;
73599;SDS011;61877;48.246;9.220;2023-04-15T14:00:10;9.07;;;3.50;;
73599;SDS011;61877;48.246;9.220;2023-04-15T14:02:37;8.70;;;3.03;;
73599;SDS011;61877;48.246;9.220;2023-04-15T14:05:04;7.27;;;3.00;;
73599;SDS011;61877;48.246;9.220;2023-04-15T14:07:30;7.22;;;3.00;;
73599;SDS011;61877;48.246;9.220;2023-04-15T14:09:58;7.30;;;2.95;;
73599;SDS011;61877;48.246;9.220;2023-04-15T14:12:24;7.70;;;2.75;;
73599;SDS011;61877;48.246;9.220;2023-04-15T14:14:49;7.93;;;2.97;;
73599;SDS011;61877;48.246;9.220;2023-04-15T14:17:18;8.20;;;3.10;;
73599;SDS011;61877;48.246;9.220;2023-04-15T14:19:44;9.82;;;3.60;;
73599;SDS011;61877;48.246;9.220;2023-04-15T14:22:17;8.93;;;3.67;;
73599;SDS011;61877;48.246;9.220;2023-04-15T14:24:43;12.75;;;4.75;;
73599;SDS011;61877;48.246;9.220;2023-04-15T14:27:11;10.93;;;4.77;;
73599;SDS011;61877;48.246;9.220;2023-04-15T14:29:36;11.43;;;5.28;;
73599;SDS011;61877;48.246;9.220;2023-04-15T14:32:02;11.35;;;5.75;;
73599;SDS011;61877;48.246;9.220;2023-04-15T14:34:34;10.27;;;5.03;;
73599;SDS011;61877;48.246;9.220;2023-04-15T14:37:00;10.63;;;4.90;;
73599;SDS011;61877;48.246;9.220;2023-04-15T14:39:31;11.82;;;4.95;;
73599;SDS011;61877;48.246;9.220;2023-04-15T14:42:00;9.35;;;5.35;;
73599;SDS011;61877;48.246;9.220;2023-04-15T14:44:25;11.00;;;4.60;;
73599;SDS011;61877;48.246;9.220;2023-04-15T14:46:51;10.10;;;4.73;;
73599;SDS011;61877;48.246;9.220;2023-04-15T14:49:17;9.00;;;4.50;;
73599;SDS011;61877;48.246;9.220;2023-04-15T14:51:42;9.83;;;4.83;;
73599;SDS011;61877;48.246;9.220;2023-04-15T14:56:54;9.50;;;4.57;;
73599;SDS011;61877;48.246;9.220;2023-04-15T14:59:19;9.55;;;5.35;;
73599;SDS011;61877;48.246;9.220;2023-04-15T15:01:48;9.93;;;4.93;;
73599;SDS011;61877;48.246;9.220;2023-04-15T15:04:13;11.25;;;5.00;;
73599;SDS011;61877;48.246;9.220;2023-04-15T15:06:39;11.00;;;4.70;;
73599;SDS011;61877;48.246;9.220;2023-04-15T15:09:05;9.32;;;4.75;;
73599;SDS011;61877;48.246;9.220;2023-04-15T15:11:32;10.67;;;4.83;;
73599;SDS011;61877;48.246;9.220;2023-04-15T15:14:00;10.13;;;4.55;;
73599;SDS011;61877;48.246;9.220;2023-04-15T15:16:26;10.38;;;4.90;;
73599;SDS011;61877;48.246;9.220;2023-04-15T15:19:00;9.73;;;5.00;;
73599;SDS011;61877;48.246;9.220;2023-04-15T15:21:26;10.45;;;5.13;;
73599;SDS011;61877;48.246;9.220;2023-04-15T15:23:52;10.95;;;5.43;;
73599;SDS011;61877;48.246;9.220;2023-04-15T15:26:19;12.10;;;5.80;;
73599;SDS011;61877;48.246;9.220;2023-04-15T15:28:47;14.47;;;6.70;;
73599;SDS011;61877;48.246;9.220;2023-04-15T15:31:21;27.40;;;14.20;;
73599;SDS011;61877;48.246;9.220;2023-04-15T15:33:47;18.85;;;8.95;;
73599;SDS011;61877;48.246;9.220;2023-04-15T15:36:13;19.73;;;9.25;;
73599;SDS011;61877;48.246;9.220;2023-04-15T15:38:40;11.67;;;5.97;;
73599;SDS011;61877;48.246;9.220;2023-04-15T15:41:05;20.60;;;10.98;;
73599;SDS011;61877;48.246;9.220;2023-04-15T15:43:31;12.27;;;5.80;;
73599;SDS011;61877;48.246;9.220;2023-04-15T15:45:57;10.63;;;5.25;;
73599;SDS011;61877;48.246;9.220;2023-04-15T15:48:27;10.77;;;5.70;;
73599;SDS011;61877;48.246;9.220;2023-04-15T15:50:53;12.55;;;6.20;;
73599;SDS011;61877;48.246;9.220;2023-04-15T15:53:19;14.37;;;6.40;;
73599;SDS011;61877;48.246;9.220;2023-04-15T15:55:48;11.52;;;5.63;;
73599;SDS011;61877;48.246;9.220;2023-04-15T15:58:14;11.32;;;4.80;;
73599;SDS011;61877;48.246;9.220;2023-04-15T16:00:40;9.30;;;4.20;;
73599;SDS011;61877;48.246;9.220;2023-04-15T16:03:05;9.10;;;4.43;;
73599;SDS011;61877;48.246;9.220;2023-04-15T16:05:38;7.95;;;3.95;;
73599;SDS011;61877;48.246;9.220;2023-04-15T16:08:04;9.00;;;3.97;;
73599;SDS011;61877;48.246;9.220;2023-04-15T16:10:30;8.55;;;4.22;;
73599;SDS011;61877;48.246;9.220;2023-04-15T16:12:56;9.87;;;5.10;;
73599;SDS011;61877;48.246;9.220;2023-04-15T16:15:24;9.98;;;3.70;;
73599;SDS011;61877;48.246;9.220;2023-04-15T16:17:49;10.43;;;3.97;;
73599;SDS011;61877;48.246;9.220;2023-04-15T16:20:19;8.60;;;4.07;;
73599;SDS011;61877;48.246;9.220;2023-04-15T16:22:46;8.48;;;3.28;;
73599;SDS011;61877;48.246;9.220;2023-04-15T16:25:14;7.75;;;3.47;;
73599;SDS011;61877;48.246;9.220;2023-04-15T16:27:39;8.33;;;3.40;;
73599;SDS011;61877;48.246;9.220;2023-04-15T16:30:06;8.38;;;3.58;;
73599;SDS011;61877;48.246;9.220;2023-04-15T16:32:33;7.72;;;3.10;;
73599;SDS011;61877;48.246;9.220;2023-04-15T16:34:59;9.23;;;3.83;;
73599;SDS011;61877;48.246;9.220;2023-04-15T16:37:27;8.40;;;3.70;;
73599;SDS011;61877;48.246;9.220;2023-04-15T16:39:54;8.88;;;3.60;;
73599;SDS011;61877;48.246;9.220;2023-04-15T16:42:20;8.30;;;3.63;;
73599;SDS011;61877;48.246;9.220;2023-04-15T16:44:55;11.85;;;5.40;;
73599;SDS011;61877;48.246;9.220;2023-04-15T16:47:22;9.52;;;4.30;;
73599;SDS011;61877;48.246;9.220;2023-04-15T16:49:47;8.52;;;3.97;;
73599;SDS011;61877;48.246;9.220;2023-04-15T16:52:13;11.55;;;4.78;;
73599;SDS011;61877;48.246;9.220;2023-04-15T16:54:40;9.23;;;3.97;;
73599;SDS011;61877;48.246;9.220;2023-04-15T16:57:07;9.75;;;4.60;;
73599;SDS011;61877;48.246;9.220;2023-04-15T16:59:33;12.17;;;5.80;;
73599;SDS011;61877;48.246;9.220;2023-04-15T17:01:58;10.77;;;4.95;;
73599;SDS011;61877;48.246;9.220;2023-04-15T17:04:24;9.10;;;4.75;;
73599;SDS011;61877;48.246;9.220;2023-04-15T17:06:49;10.37;;;5.50;;
73599;SDS011;61877;48.246;9.220;2023-04-15T17:09:18;11.20;;;4.97;;
73599;SDS011;61877;48.246;9.220;2023-04-15T17:11:44;9.40;;;4.50;;
73599;SDS011;61877;48.246;9.220;2023-04-15T17:14:12;10.05;;;4.82;;
73599;SDS011;61877;48.246;9.220;2023-04-15T17:16:40;9.07;;;4.60;;
73599;SDS011;61877;48.246;9.220;2023-04-15T17:19:10;9.50;;;4.50;;
73599;SDS011;61877;48.246;9.220;2023-04-15T17:21:36;10.27;;;4.47;;
73599;SDS011;61877;48.246;9.220;2023-04-15T17:26:59;10.38;;;4.88;;
73599;SDS011;61877;48.246;9.220;2023-04-15T17:29:44;9.43;;;4.50;;
73599;SDS011;61877;48.246;9.220;2023-04-15T17:32:14;12.30;;;5.43;;
73599;SDS011;61877;48.246;9.220;2023-04-15T17:35:31;10.93;;;5.70;;
73599;SDS011;61877;48.246;9.220;2023-04-15T17:37:47;12.00;;;5.75;;
73599;SDS011;61877;48.246;9.220;2023-04-15T17:40:19;11.87;;;5.33;;
73599;SDS011;61877;48.246;9.220;2023-04-15T17:42:48;10.52;;;5.15;;
73599;SDS011;61877;48.246;9.220;2023-04-15T17:45:20;10.38;;;4.90;;
73599;SDS011;61877;48.246;9.220;2023-04-15T17:47:52;8.93;;;4.50;;
73599;SDS011;61877;48.246;9.220;2023-04-15T17:50:18;11.77;;;4.60;;
73599;SDS011;61877;48.246;9.220;2023-04-15T17:53:03;8.98;;;4.32;;
73599;SDS011;61877;48.246;9.220;2023-04-15T17:55:29;10.35;;;4.53;;
73599;SDS011;61877;48.246;9.220;2023-04-15T17:57:57;10.15;;;5.22;;
73599;SDS011;61877;48.246;9.220;2023-04-15T18:00:24;12.90;;;5.82;;
73599;SDS011;61877;48.246;9.220;2023-04-15T18:02:50;10.30;;;4.47;;
73599;SDS011;61877;48.246;9.220;2023-04-15T18:05:16;11.30;;;4.60;;
73599;SDS011;61877;48.246;9.220;2023-04-15T18:07:42;10.73;;;4.70;;
73599;SDS011;61877;48.246;9.220;2023-04-15T18:10:10;11.65;;;4.60;;
73599;SDS011;61877;48.246;9.220;2023-04-15T18:12:39;11.10;;;4.60;;
73599;SDS011;61877;48.246;9.220;2023-04-15T18:15:05;8.70;;;4.13;;
73599;SDS011;61877;48.246;9.220;2023-04-15T18:17:33;9.20;;;4.07;;
73599;SDS011;61877;48.246;9.220;2023-04-15T18:20:00;8.83;;;3.73;;
73599;SDS011;61877;48.246;9.220;2023-04-15T18:22:26;8.88;;;3.90;;
73599;SDS011;61877;48.246;9.220;2023-04-15T18:24:52;10.38;;;4.80;;
73599;SDS011;61877;48.246;9.220;2023-04-15T18:27:17;9.57;;;4.30;;
73599;SDS011;61877;48.246;9.220;2023-04-15T18:29:43;9.20;;;3.95;;
73599;SDS011;61877;48.246;9.220;2023-04-15T18:32:11;12.07;;;5.43;;
73599;SDS011;61877;48.246;9.220;2023-04-15T18:34:40;9.93;;;4.60;;
73599;SDS011;61877;48.246;9.220;2023-04-15T18:37:10;11.13;;;5.38;;
73599;SDS011;61877;48.246;9.220;2023-04-15T18:39:36;10.85;;;5.13;;
73599;SDS011;61877;48.246;9.220;2023-04-15T18:42:04;16.00;;;8.10;;
73599;SDS011;61877;48.246;9.220;2023-04-15T18:44:30;10.77;;;5.40;;
73599;SDS011;61877;48.246;9.220;2023-04-15T18:46:55;21.88;;;10.73;;
73599;SDS011;61877;48.246;9.220;2023-04-15T18:49:23;10.93;;;5.57;;
73599;SDS011;61877;48.246;9.220;2023-04-15T18:51:50;12.40;;;5.88;;
73599;SDS011;61877;48.246;9.220;2023-04-15T18:54:17;11.45;;;5.22;;
73599;SDS011;61877;48.246;9.220;2023-04-15T18:56:42;11.17;;;5.50;;
73599;SDS011;61877;48.246;9.220;2023-04-15T18:59:13;20.55;;;9.38;;
73599;SDS011;61877;48.246;9.220;2023-04-15T19:01:39;17.73;;;8.13;;
73599;SDS011;61877;48.246;9.220;2023-04-15T19:04:05;11.25;;;5.80;;
73599;SDS011;61877;48.246;9.220;2023-04-15T19:06:31;9.10;;;4.23;;
73599;SDS011;61877;48.246;9.220;2023-04-15T19:08:59;10.93;;;4.75;;
73599;SDS011;61877;48.246;9.220;2023-04-15T19:11:28;11.77;;;6.00;;
73599;SDS011;61877;48.246;9.220;2023-04-15T19:13:54;10.90;;;5.53;;
73599;SDS011;61877;48.246;9.220;2023-04-15T19:16:21;10.73;;;4.88;;
73599;SDS011;61877;48.246;9.220;2023-04-15T19:18:47;11.45;;;5.63;;
73599;SDS011;61877;48.246;9.220;2023-04-15T19:21:12;10.37;;;5.20;;
73599;SDS011;61877;48.246;9.220;2023-04-15T19:23:38;14.10;;;6.70;;
73599;SDS011;61877;48.246;9.220;2023-04-15T19:26:08;14.93;;;8.20;;
73599;SDS011;61877;48.246;9.220;2023-04-15T19:28:34;8.75;;;4.40;;
73599;SDS011;61877;48.246;9.220;2023-04-15T19:31:02;8.83;;;4.40;;
73599;SDS011;61877;48.246;9.220;2023-04-15T19:33:28;9.23;;;4.28;;
73599;SDS011;61877;48.246;9.220;2023-04-15T19:35:56;8.40;;;3.90;;
73599;SDS011;61877;48.246;9.220;2023-04-15T19:38:24;6.88;;;3.20;;
73599;SDS011;61877;48.246;9.220;2023-04-15T19:40:51;7.70;;;3.83;;
73599;SDS011;61877;48.246;9.220;2023-04-15T19:43:18;7.40;;;3.47;;
73599;SDS011;61877;48.246;9.220;2023-04-15T19:45:46;8.07;;;3.25;;
73599;SDS011;61877;48.246;9.220;2023-04-15T19:48:12;6.63;;;2.75;;
73599;SDS011;61877;48.246;9.220;2023-04-15T19:50:43;7.13;;;3.35;;
73599;SDS011;61877;48.246;9.220;2023-04-15T19:53:08;7.30;;;3.20;;
73599;SDS011;61877;48.246;9.220;2023-04-15T19:55:37;7.90;;;3.20;;
73599;SDS011;61877;48.246;9.220;2023-04-15T19:58:03;8.73;;;4.13;;
73599;SDS011;61877;48.246;9.220;2023-04-15T20:00:30;7.60;;;3.50;;
73599;SDS011;61877;48.246;9.220;2023-04-15T20:02:55;9.43;;;3.30;;
73599;SDS011;61877;48.246;9.220;2023-04-15T20:05:21;7.10;;;3.10;;
73599;SDS011;61877;48.246;9.220;2023-04-15T20:07:48;7.35;;;3.00;;
73599;SDS011;61877;48.246;9.220;2023-04-15T20:10:13;7.17;;;3.20;;
73599;SDS011;61877;48.246;9.220;2023-04-15T20:12:39;7.47;;;3.40;;
73599;SDS011;61877;48.246;9.220;2023-04-15T20:15:05;7.50;;;3.30;;
73599;SDS011;61877;48.246;9.220;2023-04-15T20:17:35;7.55;;;3.42;;
73599;SDS011;61877;48.246;9.220;2023-04-15T20:20:05;7.40;;;3.17;;
73599;SDS011;61877;48.246;9.220;2023-04-15T20:22:34;6.95;;;3.30;;
73599;SDS011;61877;48.246;9.220;2023-04-15T20:25:01;6.83;;;2.87;;
73599;SDS011;61877;48.246;9.220;2023-04-15T20:27:27;7.22;;;3.25;;
73599;SDS011;61877;48.246;9.220;2023-04-15T20:29:52;7.60;;;3.53;;
73599;SDS011;61877;48.246;9.220;2023-04-15T20:32:18;6.47;;;2.70;;
73599;SDS011;61877;48.246;9.220;2023-04-15T20:34:46;6.87;;;2.80;;
73599;SDS011;61877;48.246;9.220;2023-04-15T20:37:13;7.82;;;3.83;;
73599;SDS011;61877;48.246;9.220;2023-04-15T20:39:42;7.50;;;3.55;;
73599;SDS011;61877;48.246;9.220;2023-04-15T20:42:07;6.63;;;2.90;;
73599;SDS011;61877;48.246;9.220;2023-04-15T20:44:33;6.83;;;3.10;;
73599;SDS011;61877;48.246;9.220;2023-04-15T20:46:59;6.20;;;2.50;;
73599;SDS011;61877;48.246;9.220;2023-04-15T20:49:24;7.30;;;3.10;;
73599;SDS011;61877;48.246;9.220;2023-04-15T20:51:52;6.60;;;2.65;;
73599;SDS011;61877;48.246;9.220;2023-04-15T20:54:17;6.00;;;2.40;;
73599;SDS011;61877;48.246;9.220;2023-04-15T20:56:44;6.77;;;2.80;;
73599;SDS011;61877;48.246;9.220;2023-04-15T20:59:09;5.85;;;2.30;;
73599;SDS011;61877;48.246;9.220;2023-04-15T21:01:38;5.97;;;2.35;;
73599;SDS011;61877;48.246;9.220;2023-04-15T21:04:03;5.80;;;2.20;;
73599;SDS011;61877;48.246;9.220;2023-04-15T21:06:29;5.60;;;2.40;;
73599;SDS011;61877;48.246;9.220;2023-04-15T21:08:56;6.13;;;2.87;;
73599;SDS011;61877;48.246;9.220;2023-04-15T21:11:23;5.93;;;2.45;;
73599;SDS011;61877;48.246;9.220;2023-04-15T21:13:49;5.90;;;2.85;;
73599;SDS011;61877;48.246;9.220;2023-04-15T21:16:14;12.03;;;4.77;;
73599;SDS011;61877;48.246;9.220;2023-04-15T21:18:40;33.50;;;9.85;;
73599;SDS011;61877;48.246;9.220;2023-04-15T21:21:05;22.60;;;9.40;;
73599;SDS011;61877;48.246;9.220;2023-04-15T21:23:31;17.10;;;8.33;;
73599;SDS011;61877;48.246;9.220;2023-04-15T21:25:58;14.77;;;8.05;;
73599;SDS011;61877;48.246;9.220;2023-04-15T21:28:29;10.60;;;5.60;;
73599;SDS011;61877;48.246;9.220;2023-04-15T21:30:55;6.75;;;2.90;;
73599;SDS011;61877;48.246;9.220;2023-04-15T21:33:21;8.57;;;4.15;;
73599;SDS011;61877;48.246;9.220;2023-04-15T21:35:46;6.00;;;2.43;;
73599;SDS011;61877;48.246;9.220;2023-04-15T21:38:12;6.28;;;2.70;;
73599;SDS011;61877;48.246;9.220;2023-04-15T21:40:39;6.50;;;2.43;;
73599;SDS011;61877;48.246;9.220;2023-04-15T21:43:06;10.13;;;4.38;;
73599;SDS011;61877;48.246;9.220;2023-04-15T21:45:32;9.23;;;3.22;;
73599;SDS011;61877;48.246;9.220;2023-04-15T21:47:58;6.90;;;3.10;;
73599;SDS011;61877;48.246;9.220;2023-04-15T21:50:23;8.40;;;3.87;;
73599;SDS011;61877;48.246;9.220;2023-04-15T21:52:49;16.57;;;8.53;;
73599;SDS011;61877;48.246;9.220;2023-04-15T21:55:14;7.63;;;3.20;;
73599;SDS011;61877;48.246;9.220;2023-04-15T21:57:40;6.55;;;2.60;;
73599;SDS011;61877;48.246;9.220;2023-04-15T22:00:07;6.43;;;2.80;;
73599;SDS011;61877;48.246;9.220;2023-04-15T22:02:33;7.28;;;3.83;;
73599;SDS011;61877;48.246;9.220;2023-04-15T22:04:58;5.57;;;2.30;;
73599;SDS011;61877;48.246;9.220;2023-04-15T22:07:24;5.97;;;2.60;;
73599;SDS011;61877;48.246;9.220;2023-04-15T22:09:50;6.28;;;2.35;;
73599;SDS011;61877;48.246;9.220;2023-04-15T22:12:16;6.10;;;2.78;;
73599;SDS011;61877;48.246;9.220;2023-04-15T22:14:41;5.73;;;2.20;;
73599;SDS011;61877;48.246;9.220;2023-04-15T22:17:08;6.05;;;2.30;;
73599;SDS011;61877;48.246;9.220;2023-04-15T22:19:34;6.13;;;2.33;;
73599;SDS011;61877;48.246;9.220;2023-04-15T22:22:00;6.00;;;2.57;;
73599;SDS011;61877;48.246;9.220;2023-04-15T22:24:25;6.20;;;2.47;;
73599;SDS011;61877;48.246;9.220;2023-04-15T22:26:50;5.35;;;1.83;;
73599;SDS011;61877;48.246;9.220;2023-04-15T22:29:22;5.30;;;1.87;;
73599;SDS011;61877;48.246;9.220;2023-04-15T22:31:47;5.20;;;2.00;;
73599;SDS011;61877;48.246;9.220;2023-04-15T22:34:14;5.00;;;1.90;;
73599;SDS011;61877;48.246;9.220;2023-04-15T22:36:45;5.40;;;1.95;;
73599;SDS011;61877;48.246;9.220;2023-04-15T22:39:11;5.97;;;2.00;;
73599;SDS011;61877;48.246;9.220;2023-04-15T22:41:36;5.25;;;2.00;;
73599;SDS011;61877;48.246;9.220;2023-04-15T22:44:03;5.17;;;2.00;;
73599;SDS011;61877;48.246;9.220;2023-04-15T22:46:29;5.60;;;2.20;;
73599;SDS011;61877;48.246;9.220;2023-04-15T22:48:55;5.20;;;2.10;;
73599;SDS011;61877;48.246;9.220;2023-04-15T22:51:23;5.55;;;2.10;;
73599;SDS011;61877;48.246;9.220;2023-04-15T22:53:49;5.30;;;2.00;;
73599;SDS011;61877;48.246;9.220;2023-04-15T22:56:16;5.20;;;1.97;;
73599;SDS011;61877;48.246;9.220;2023-04-15T22:58:42;5.75;;;1.83;;
73599;SDS011;61877;48.246;9.220;2023-04-15T23:01:07;5.40;;;2.20;;
73599;SDS011;61877;48.246;9.220;2023-04-15T23:03:33;5.03;;;1.90;;
73599;SDS011;61877;48.246;9.220;2023-04-15T23:05:58;5.07;;;1.87;;
73599;SDS011;61877;48.246;9.220;2023-04-15T23:08:28;5.13;;;1.83;;
73599;SDS011;61877;48.246;9.220;2023-04-15T23:10:54;5.22;;;1.80;;
73599;SDS011;61877;48.246;9.220;2023-04-15T23:13:20;5.43;;;2.00;;
73599;SDS011;61877;48.246;9.220;2023-04-15T23:15:45;5.80;;;2.23;;
73599;SDS011;61877;48.246;9.220;2023-04-15T23:18:11;5.73;;;2.30;;
73599;SDS011;61877;48.246;9.220;2023-04-15T23:20:37;5.10;;;1.90;;
73599;SDS011;61877;48.246;9.220;2023-04-15T23:23:05;5.00;;;1.80;;
73599;SDS011;61877;48.246;9.220;2023-04-15T23:25:33;5.55;;;1.92;;
73599;SDS011;61877;48.246;9.220;2023-04-15T23:27:58;5.15;;;1.90;;
73599;SDS011;61877;48.246;9.220;2023-04-15T23:30:27;5.10;;;1.90;;
73599;SDS011;61877;48.246;9.220;2023-04-15T23:32:52;4.70;;;1.67;;
73599;SDS011;61877;48.246;9.220;2023-04-15T23:35:18;5.00;;;1.83;;
73599;SDS011;61877;48.246;9.220;2023-04-15T23:37:51;5.10;;;1.73;;
73599;SDS011;61877;48.246;9.220;2023-04-15T23:40:17;5.00;;;1.80;;
73599;SDS011;61877;48.246;9.220;2023-04-15T23:42:52;5.03;;;1.90;;
73599;SDS011;61877;48.246;9.220;2023-04-15T23:45:18;5.30;;;2.08;;
73599;SDS011;61877;48.246;9.220;2023-04-15T23:47:45;5.07;;;1.98;;
73599;SDS011;61877;48.246;9.220;2023-04-15T23:50:11;4.97;;;1.90;;
73599;SDS011;61877;48.246;9.220;2023-04-15T23:52:36;5.30;;;1.90;;
73599;SDS011;61877;48.246;9.220;2023-04-15T23:55:01;4.90;;;1.83;;
73599;SDS011;61877;48.246;9.220;2023-04-15T23:57:27;5.20;;;2.00;;